createdAt,value
2019-06-08T00:00:27.946Z,21.71
2019-06-08T00:03:02.203Z,21.63
2019-06-08T00:05:34.311Z,21.62
2019-06-08T00:08:06.582Z,21.56
2019-06-08T00:10:39.469Z,21.54
2019-06-08T00:13:13.051Z,21.55
2019-06-08T00:15:47.474Z,21.47
2019-06-08T00:20:52.727Z,21.41
2019-06-08T00:23:26.500Z,21.40
2019-06-08T00:26:00.911Z,21.38
2019-06-08T00:28:33.310Z,21.41
2019-06-08T00:31:06.926Z,21.41
2019-06-08T00:33:39.359Z,21.38
2019-06-08T00:36:11.744Z,21.38
2019-06-08T00:38:44.135Z,21.28
2019-06-08T00:41:17.079Z,21.30
2019-06-08T00:43:49.383Z,21.28
2019-06-08T00:46:21.709Z,21.20
2019-06-08T00:48:54.409Z,21.16
2019-06-08T00:51:26.613Z,21.09
2019-06-08T00:53:58.990Z,20.96
2019-06-08T00:56:34.933Z,21.03
2019-06-08T00:59:07.921Z,20.86
2019-06-08T01:01:40.357Z,20.87
2019-06-08T01:04:12.766Z,20.87
2019-06-08T01:06:45.075Z,20.91
2019-06-08T01:09:18.086Z,20.83
2019-06-08T01:11:50.982Z,20.82
2019-06-08T01:14:23.371Z,20.79
2019-06-08T01:16:55.732Z,20.83
2019-06-08T01:19:31.205Z,20.81
2019-06-08T01:22:03.736Z,20.72
2019-06-08T01:24:36.088Z,20.79
2019-06-08T01:27:08.549Z,20.83
2019-06-08T01:29:40.982Z,20.76
2019-06-08T01:32:13.347Z,20.75
2019-06-08T01:34:45.878Z,20.71
2019-06-08T01:37:18.226Z,20.73
2019-06-08T01:39:50.646Z,20.69
2019-06-08T01:42:23.441Z,20.67
2019-06-08T01:44:55.757Z,20.66
2019-06-08T01:47:28.369Z,20.57
2019-06-08T01:50:00.709Z,20.51
2019-06-08T01:52:33.408Z,20.47
2019-06-08T01:55:07.237Z,20.42
2019-06-08T01:57:39.473Z,20.40
2019-06-08T02:00:29.945Z,20.33
2019-06-08T02:02:46.430Z,20.32
2019-06-08T02:05:19.003Z,20.31
2019-06-08T02:07:54.891Z,20.22
2019-06-08T02:10:28.779Z,20.28
2019-06-08T02:13:01.346Z,20.31
2019-06-08T02:15:33.874Z,20.52
2019-06-08T02:18:06.193Z,21.32
2019-06-08T02:20:39.827Z,21.97
2019-06-08T02:23:13.738Z,22.54
2019-06-08T02:25:49.345Z,23.02
2019-06-08T02:28:23.508Z,23.17
2019-06-08T02:30:55.987Z,22.53
2019-06-08T02:33:30.261Z,21.78
2019-06-08T02:36:02.361Z,21.29
2019-06-08T02:38:36.086Z,21.02
2019-06-08T02:41:11.391Z,20.89
2019-06-08T02:43:45.541Z,20.74
2019-06-08T02:46:21.013Z,20.56
2019-06-08T02:49:04.105Z,20.48
2019-06-08T02:51:31.213Z,20.42
2019-06-08T02:54:03.372Z,20.34
2019-06-08T02:56:36.727Z,20.29
2019-06-08T02:59:13.335Z,20.28
2019-06-08T03:01:48.487Z,20.33
2019-06-08T03:04:22.335Z,20.33
2019-06-08T03:06:57.693Z,20.38
2019-06-08T03:09:32.429Z,20.30
2019-06-08T03:12:06.691Z,20.35
2019-06-08T03:14:42.276Z,20.33
2019-06-08T03:17:15.946Z,20.31
2019-06-08T03:19:49.208Z,20.36
2019-06-08T03:22:23.578Z,20.37
2019-06-08T03:24:56.439Z,20.33
2019-06-08T03:27:29.934Z,20.42
2019-06-08T03:30:16.461Z,20.43
2019-06-08T03:32:44.708Z,20.51
2019-06-08T03:35:14.672Z,20.49
2019-06-08T03:37:48.855Z,20.52
2019-06-08T03:40:22.203Z,20.60
2019-06-08T03:42:59.619Z,20.68
2019-06-08T03:45:31.197Z,20.65
2019-06-08T03:48:03.628Z,20.64
2019-06-08T03:50:37.608Z,20.69
2019-06-08T03:53:10.262Z,20.69
2019-06-08T03:55:45.423Z,20.73
2019-06-08T03:58:19.620Z,20.80
2019-06-08T04:00:54.677Z,20.87
2019-06-08T04:03:27.005Z,20.87
2019-06-08T04:05:59.666Z,20.91
2019-06-08T04:08:32.651Z,20.90
2019-06-08T04:11:05.476Z,20.90
2019-06-08T04:13:39.790Z,20.97
2019-06-08T04:16:13.380Z,20.97
2019-06-08T04:18:46.811Z,21.06
2019-06-08T04:21:19.441Z,21.07
2019-06-08T04:23:51.678Z,21.07
2019-06-08T04:26:24.553Z,21.09
2019-06-08T04:28:58.571Z,21.19
2019-06-08T04:31:32.814Z,21.29
2019-06-08T04:34:05.084Z,21.36
2019-06-08T04:36:38.939Z,21.46
2019-06-08T04:39:12.664Z,21.49
2019-06-08T04:41:46.934Z,21.51
2019-06-08T04:44:19.141Z,21.59
2019-06-08T04:46:51.421Z,21.62
2019-06-08T04:49:38.477Z,21.57
2019-06-08T04:52:10.804Z,21.65
2019-06-08T04:54:44.980Z,21.74
2019-06-08T04:57:19.135Z,21.77
2019-06-08T04:59:51.589Z,21.79
2019-06-08T05:02:24.224Z,21.84
2019-06-08T05:04:57.643Z,21.84
2019-06-08T05:07:29.990Z,21.97
2019-06-08T05:10:02.374Z,22.01
2019-06-08T05:12:34.908Z,22.04
2019-06-08T05:15:08.523Z,22.05
2019-06-08T05:17:41.316Z,22.17
2019-06-08T05:20:14.779Z,22.25
2019-06-08T05:22:47.632Z,22.35
2019-06-08T05:25:20.079Z,22.49
2019-06-08T05:27:52.366Z,22.51
2019-06-08T05:30:28.215Z,22.59
2019-06-08T05:33:00.506Z,22.63
2019-06-08T05:35:35.065Z,22.66
2019-06-08T05:38:09.146Z,22.78
2019-06-08T05:40:52.594Z,22.85
2019-06-08T05:43:29.860Z,22.96
2019-06-08T05:46:05.509Z,22.98
2019-06-08T05:48:39.666Z,23.13
2019-06-08T05:51:12.551Z,23.22
2019-06-08T05:53:45.836Z,23.29
2019-06-08T05:56:21.592Z,23.34
2019-06-08T05:58:54.077Z,23.45
2019-06-08T06:01:26.647Z,23.51
2019-06-08T06:03:59.613Z,23.62
2019-06-08T06:06:32.794Z,23.64
2019-06-08T06:09:07.639Z,23.79
2019-06-08T06:11:42.904Z,23.84
2019-06-08T06:14:16.708Z,23.96
2019-06-08T06:16:49.260Z,24.05
2019-06-08T06:19:23.449Z,24.08
2019-06-08T06:21:58.944Z,24.17
2019-06-08T06:24:31.546Z,24.25
2019-06-08T06:27:05.843Z,24.28
2019-06-08T06:29:38.370Z,24.40
2019-06-08T06:32:12.207Z,24.48
2019-06-08T06:34:47.925Z,24.65
2019-06-08T06:37:22.100Z,24.72
2019-06-08T06:39:56.110Z,24.67
2019-06-08T06:42:28.423Z,24.77
2019-06-08T06:45:01.013Z,24.90
2019-06-08T06:47:36.495Z,25.06
2019-06-08T06:50:09.115Z,25.19
2019-06-08T06:52:42.736Z,25.33
2019-06-08T06:55:15.858Z,25.49
2019-06-08T06:57:51.443Z,25.57
2019-06-08T07:00:32.242Z,25.53
2019-06-08T07:03:04.743Z,25.61
2019-06-08T07:05:38.076Z,25.72
2019-06-08T07:08:10.578Z,25.87
2019-06-08T07:10:46.643Z,25.98
2019-06-08T07:13:27.523Z,26.09
2019-06-08T07:16:18.688Z,26.28
2019-06-08T07:18:48.198Z,26.30
2019-06-08T07:21:21.795Z,26.29
2019-06-08T07:23:56.213Z,26.43
2019-06-08T07:26:32.015Z,26.53
2019-06-08T07:29:04.837Z,26.55
2019-06-08T07:31:46.692Z,26.62
2019-06-08T07:34:22.752Z,26.76
2019-06-08T07:36:55.577Z,26.91
2019-06-08T07:39:27.922Z,26.99
2019-06-08T07:42:01.577Z,27.04
2019-06-08T07:44:34.137Z,26.89
2019-06-08T07:47:06.722Z,26.99
2019-06-08T07:49:40.074Z,27.04
2019-06-08T07:52:19.689Z,27.08
2019-06-08T07:54:53.116Z,27.23
2019-06-08T07:57:30.261Z,27.27
2019-06-08T08:00:09.098Z,27.28
2019-06-08T08:02:40.694Z,27.51
2019-06-08T08:05:13.286Z,27.69
2019-06-08T08:07:52.537Z,27.90
2019-06-08T08:10:30.330Z,27.90
2019-06-08T08:13:11.094Z,28.10
2019-06-08T08:15:44.004Z,28.04
2019-06-08T08:18:20.310Z,28.16
2019-06-08T08:20:53.528Z,28.27
2019-06-08T08:23:27.394Z,28.25
2019-06-08T08:26:01.716Z,28.33
2019-06-08T08:28:33.998Z,28.20
2019-06-08T08:31:11.423Z,28.19
2019-06-08T08:33:45.023Z,28.39
2019-06-08T08:36:17.979Z,28.41
2019-06-08T08:38:53.686Z,28.48
2019-06-08T08:41:30.094Z,28.57
2019-06-08T08:44:08.096Z,28.70
2019-06-08T08:46:40.426Z,28.53
2019-06-08T08:49:18.069Z,28.56
2019-06-08T08:51:52.157Z,28.64
2019-06-08T08:54:27.542Z,28.52
2019-06-08T08:57:22.426Z,28.60
2019-06-08T08:59:56.310Z,28.59
2019-06-08T09:02:30.626Z,28.67
2019-06-08T09:05:03.742Z,28.65
2019-06-08T09:07:38.592Z,28.79
2019-06-08T09:10:12.955Z,28.99
2019-06-08T09:12:45.476Z,28.96
2019-06-08T09:15:19.232Z,29.13
2019-06-08T09:17:52.683Z,29.16
2019-06-08T09:20:28.356Z,29.06
2019-06-08T09:23:08.722Z,29.10
2019-06-08T09:25:37.389Z,29.13
2019-06-08T09:28:12.863Z,29.29
2019-06-08T09:30:45.397Z,29.41
2019-06-08T09:33:22.804Z,29.39
2019-06-08T09:35:59.945Z,29.34
2019-06-08T09:38:33.183Z,29.39
2019-06-08T09:41:08.786Z,29.42
2019-06-08T09:43:40.864Z,29.34
2019-06-08T09:46:13.484Z,29.49
2019-06-08T09:48:48.660Z,29.66
2019-06-08T09:51:23.668Z,29.68
2019-06-08T09:54:00.403Z,29.85
2019-06-08T09:56:33.834Z,29.78
2019-06-08T09:59:15.283Z,29.96
2019-06-08T10:01:48.980Z,30.05
2019-06-08T10:04:21.866Z,29.74
2019-06-08T10:06:56.855Z,29.80
2019-06-08T10:09:31.401Z,29.75
2019-06-08T10:12:24.446Z,29.78
2019-06-08T10:14:56.655Z,29.88
2019-06-08T10:17:33.217Z,30.17
2019-06-08T10:20:25.213Z,30.30
2019-06-08T10:23:03.200Z,30.20
2019-06-08T10:25:38.386Z,30.38
2019-06-08T10:28:15.887Z,30.45
2019-06-08T10:30:48.579Z,30.55
2019-06-08T10:33:21.281Z,30.45
2019-06-08T10:36:02.343Z,30.42
2019-06-08T10:38:34.288Z,30.40
2019-06-08T10:41:16.226Z,30.51
2019-06-08T10:43:42.809Z,30.61
2019-06-08T10:46:20.885Z,30.38
2019-06-08T10:48:57.390Z,30.28
2019-06-08T10:51:30.819Z,30.02
2019-06-08T10:54:04.404Z,29.83
2019-06-08T10:56:38.572Z,29.68
2019-06-08T10:59:18.530Z,29.58
2019-06-08T11:01:50.661Z,29.59
2019-06-08T11:04:23.103Z,29.66
2019-06-08T11:06:58.318Z,29.69
2019-06-08T11:09:29.194Z,29.74
2019-06-08T11:12:03.397Z,29.69
2019-06-08T11:14:38.252Z,29.73
2019-06-08T11:17:12.032Z,29.67
2019-06-08T11:19:44.587Z,29.94
2019-06-08T11:22:18.048Z,30.08
2019-06-08T11:24:50.802Z,30.05
2019-06-08T11:27:23.080Z,30.25
2019-06-08T11:29:57.456Z,30.18
2019-06-08T11:32:29.777Z,30.18
2019-06-08T11:35:04.236Z,30.35
2019-06-08T11:37:40.952Z,30.49
2019-06-08T11:40:14.072Z,30.63
2019-06-08T11:42:48.526Z,30.73
2019-06-08T11:45:21.396Z,30.67
2019-06-08T11:47:53.975Z,30.61
2019-06-08T11:50:42.244Z,30.21
2019-06-08T11:53:17.853Z,30.00
2019-06-08T11:55:51.279Z,29.81
2019-06-08T11:58:24.431Z,30.03
2019-06-08T12:01:02.887Z,30.30
2019-06-08T12:03:34.900Z,30.75
2019-06-08T12:06:10.949Z,30.49
2019-06-08T12:08:43.142Z,30.38
2019-06-08T12:11:19.777Z,29.97
2019-06-08T12:13:49.708Z,30.20
2019-06-08T12:16:22.852Z,30.54
2019-06-08T12:18:55.307Z,30.61
2019-06-08T12:21:27.584Z,31.01
2019-06-08T12:24:00.718Z,31.18
2019-06-08T12:26:33.255Z,31.13
2019-06-08T12:29:09.366Z,31.11
2019-06-08T12:31:40.401Z,30.90
2019-06-08T12:34:13.482Z,30.86
2019-06-08T12:36:48.116Z,30.84
2019-06-08T12:39:33.528Z,30.85
2019-06-08T12:42:15.635Z,30.99
2019-06-08T12:44:44.703Z,31.05
2019-06-08T12:47:26.659Z,31.25
2019-06-08T12:49:59.723Z,31.20
2019-06-08T12:52:32.445Z,31.24
2019-06-08T12:55:14.452Z,31.17
2019-06-08T12:57:42.744Z,31.00
2019-06-08T13:00:29.808Z,30.94
2019-06-08T13:02:59.620Z,30.85
2019-06-08T13:05:32.086Z,30.66
2019-06-08T13:08:04.687Z,30.44
2019-06-08T13:10:38.353Z,30.74
2019-06-08T13:13:12.783Z,30.72
2019-06-08T13:15:48.416Z,30.74
2019-06-08T13:18:21.546Z,30.72
2019-06-08T13:21:00.409Z,30.75
2019-06-08T13:23:32.298Z,31.01
2019-06-08T13:26:05.027Z,30.95
2019-06-08T13:28:41.761Z,30.76
2019-06-08T13:31:18.541Z,30.81
2019-06-08T13:33:52.097Z,30.90
2019-06-08T13:36:27.056Z,31.05
2019-06-08T13:38:58.873Z,31.05
2019-06-08T13:41:45.441Z,31.17
2019-06-08T13:44:21.900Z,31.27
2019-06-08T13:46:54.473Z,31.27
2019-06-08T13:49:34.693Z,31.31
2019-06-08T13:52:07.913Z,31.50
2019-06-08T13:54:41.154Z,31.49
2019-06-08T13:57:19.988Z,31.45
2019-06-08T13:59:57.722Z,31.30
2019-06-08T14:02:39.806Z,31.09
2019-06-08T14:05:18.069Z,31.11
2019-06-08T14:07:51.683Z,30.86
2019-06-08T14:10:33.364Z,30.51
2019-06-08T14:13:10.726Z,30.12
2019-06-08T14:15:43.991Z,30.06
2019-06-08T14:18:21.278Z,29.93
2019-06-08T14:20:54.655Z,29.80
2019-06-08T14:23:31.809Z,29.78
2019-06-08T14:26:04.423Z,29.96
2019-06-08T14:28:55.321Z,30.41
2019-06-08T14:31:45.724Z,30.49
2019-06-08T14:34:21.753Z,30.33
2019-06-08T14:36:54.439Z,30.21
2019-06-08T14:39:29.623Z,30.41
2019-06-08T14:42:01.060Z,30.00
2019-06-08T14:44:37.920Z,29.80
2019-06-08T14:47:16.136Z,29.61
2019-06-08T14:49:48.972Z,29.26
2019-06-08T14:52:25.264Z,29.11
2019-06-08T14:54:58.614Z,28.98
2019-06-08T14:57:33.680Z,28.94
2019-06-08T15:00:11.352Z,28.88
2019-06-08T15:02:45.129Z,29.01
2019-06-08T15:05:18.578Z,29.37
2019-06-08T15:07:55.048Z,29.98
2019-06-08T15:10:31.238Z,30.05
2019-06-08T15:13:03.660Z,30.52
2019-06-08T15:15:38.171Z,30.36
2019-06-08T15:18:11.922Z,30.64
2019-06-08T15:20:47.768Z,30.91
2019-06-08T15:23:21.519Z,30.67
2019-06-08T15:25:54.112Z,30.86
2019-06-08T15:28:31.638Z,30.59
2019-06-08T15:31:02.977Z,29.80
2019-06-08T15:33:35.301Z,29.61
2019-06-08T15:36:08.480Z,30.46
2019-06-08T15:38:41.180Z,30.30
2019-06-08T15:41:13.413Z,30.30
2019-06-08T15:43:48.108Z,30.25
2019-06-08T15:46:24.143Z,30.25
2019-06-08T15:48:56.621Z,30.32
2019-06-08T15:51:33.899Z,29.53
2019-06-08T15:54:07.980Z,29.17
2019-06-08T15:56:48.568Z,28.98
2019-06-08T15:59:20.927Z,28.85
2019-06-08T16:01:53.477Z,28.72
2019-06-08T16:04:30.203Z,28.60
2019-06-08T16:07:05.705Z,28.50
2019-06-08T16:09:40.423Z,28.39
2019-06-08T16:12:14.085Z,28.20
2019-06-08T16:14:48.898Z,28.22
2019-06-08T16:17:25.096Z,28.21
2019-06-08T16:20:03.536Z,28.22
2019-06-08T16:22:36.428Z,28.21
2019-06-08T16:25:20.286Z,28.25
2019-06-08T16:27:55.582Z,28.21
2019-06-08T16:30:28.931Z,28.10
2019-06-08T16:33:02.297Z,28.09
2019-06-08T16:35:35.773Z,28.05
2019-06-08T16:38:15.576Z,28.03
2019-06-08T16:40:51.437Z,27.95
2019-06-08T16:43:26.839Z,27.83
2019-06-08T16:46:05.843Z,27.82
2019-06-08T16:48:45.759Z,27.78
2019-06-08T16:51:23.078Z,27.74
2019-06-08T16:53:57.777Z,27.65
2019-06-08T16:56:36.362Z,27.58
2019-06-08T17:02:16.739Z,27.44
2019-06-08T17:04:49.181Z,27.39
2019-06-08T17:07:21.942Z,27.16
2019-06-08T17:09:57.983Z,27.11
2019-06-08T17:12:32.820Z,27.02
2019-06-08T17:15:07.036Z,27.02
2019-06-08T17:17:40.559Z,26.65
2019-06-08T17:20:14.746Z,26.65
2019-06-08T17:22:47.592Z,26.54
2019-06-08T17:25:21.713Z,26.43
2019-06-08T17:27:54.911Z,26.38
2019-06-08T17:30:27.261Z,26.30
2019-06-08T17:32:59.727Z,26.13
2019-06-08T17:35:33.392Z,26.05
2019-06-08T17:38:08.820Z,26.01
2019-06-08T17:40:42.545Z,25.92
2019-06-08T17:43:34.243Z,25.90
2019-06-08T17:46:07.530Z,25.80
2019-06-08T17:48:43.129Z,25.82
2019-06-08T17:51:18.958Z,25.73
2019-06-08T17:53:51.391Z,25.69
2019-06-08T17:56:27.567Z,25.64
2019-06-08T17:58:59.863Z,25.57
2019-06-08T18:01:34.068Z,25.52
2019-06-08T18:04:08.090Z,25.47
2019-06-08T18:06:41.831Z,25.41
2019-06-08T18:09:17.812Z,25.35
2019-06-08T18:11:50.219Z,25.26
2019-06-08T18:14:23.449Z,25.19
2019-06-08T18:16:57.857Z,25.09
2019-06-08T18:19:30.993Z,24.99
2019-06-08T18:22:15.345Z,25.04
2019-06-08T18:24:58.090Z,25.02
2019-06-08T18:27:32.274Z,24.74
2019-06-08T18:30:08.916Z,24.63
2019-06-08T18:32:40.963Z,24.51
2019-06-08T18:35:14.231Z,24.55
2019-06-08T18:37:48.669Z,24.50
2019-06-08T18:40:21.038Z,24.47
2019-06-08T18:42:53.602Z,24.42
2019-06-08T18:45:27.620Z,24.39
2019-06-08T18:48:01.517Z,24.29
2019-06-08T18:50:35.165Z,24.26
2019-06-08T18:53:08.952Z,24.25
2019-06-08T18:55:43.617Z,24.22
2019-06-08T18:58:24.424Z,24.09
2019-06-08T19:00:52.633Z,24.05
2019-06-08T19:03:25.298Z,23.98
2019-06-08T19:06:02.028Z,23.98
2019-06-08T19:08:39.239Z,23.99
2019-06-08T19:11:12.517Z,23.98
2019-06-08T19:13:47.433Z,23.98
2019-06-08T19:16:20.108Z,23.88
2019-06-08T19:18:54.438Z,23.82
2019-06-08T19:21:32.281Z,23.77
2019-06-08T19:24:12.592Z,23.76
2019-06-08T19:26:47.753Z,23.68
2019-06-08T19:29:21.444Z,23.58
2019-06-08T19:31:54.049Z,23.61
2019-06-08T19:34:29.082Z,23.56
2019-06-08T19:37:01.804Z,23.50
2019-06-08T19:39:35.713Z,23.44
2019-06-08T19:42:09.577Z,23.42
2019-06-08T19:44:54.585Z,23.35
2019-06-08T19:47:18.559Z,23.18
2019-06-08T19:49:57.808Z,23.07
2019-06-08T19:52:42.065Z,23.04
2019-06-08T19:55:12.772Z,22.98
2019-06-08T19:57:53.345Z,22.84
2019-06-08T20:00:35.008Z,22.78
2019-06-08T20:03:13.106Z,22.70
2019-06-08T20:05:46.799Z,22.59
2019-06-08T20:08:24.673Z,22.51
2019-06-08T20:10:57.701Z,22.42
2019-06-08T20:13:30.225Z,22.35
2019-06-08T20:16:08.433Z,22.37
2019-06-08T20:18:53.892Z,22.34
2019-06-08T20:21:31.260Z,22.37
2019-06-08T20:24:10.166Z,22.33
2019-06-08T20:26:47.141Z,22.29
2019-06-08T20:29:28.225Z,22.38
2019-06-08T20:32:00.530Z,22.38
2019-06-08T20:34:33.118Z,22.34
2019-06-08T20:37:24.208Z,22.29
2019-06-08T20:40:14.053Z,22.37
2019-06-08T20:42:54.584Z,22.37
2019-06-08T20:45:28.102Z,22.32
2019-06-08T20:48:01.015Z,22.37
2019-06-08T20:50:37.627Z,22.35
2019-06-08T20:53:10.043Z,22.35
2019-06-08T20:55:43.185Z,22.28
2019-06-08T20:58:17.684Z,22.24
2019-06-08T21:00:51.281Z,22.22
2019-06-08T21:03:27.830Z,22.19
2019-06-08T21:06:02.252Z,22.25
2019-06-08T21:08:37.244Z,22.24
2019-06-08T21:11:17.741Z,22.20
2019-06-08T21:13:52.402Z,22.15
2019-06-08T21:16:27.681Z,22.11
2019-06-08T21:18:59.953Z,22.15
2019-06-08T21:21:39.004Z,22.16
2019-06-08T21:24:11.087Z,22.11
2019-06-08T21:26:43.671Z,22.08
2019-06-08T21:29:17.595Z,22.05
2019-06-08T21:31:59.581Z,22.07
2019-06-08T21:34:30.449Z,21.95
2019-06-08T21:37:02.854Z,21.98
2019-06-08T21:39:38.901Z,22.01
2019-06-08T21:42:09.447Z,22.00
2019-06-08T21:44:41.894Z,21.91
2019-06-08T21:47:14.315Z,21.97
2019-06-08T21:49:50.218Z,21.99
2019-06-08T21:52:22.444Z,22.00
2019-06-08T21:54:54.578Z,22.02
2019-06-08T21:57:27.784Z,22.10
2019-06-08T22:00:19.340Z,22.10
2019-06-08T22:03:00.285Z,22.01
2019-06-08T22:05:34.067Z,21.85
2019-06-08T22:08:08.005Z,21.74
2019-06-08T22:10:40.337Z,21.68
2019-06-08T22:13:12.918Z,21.71
2019-06-08T22:15:48.365Z,21.63
2019-06-08T22:18:21.345Z,21.40
2019-06-08T22:20:59.424Z,21.23
2019-06-08T22:23:30.864Z,21.11
2019-06-08T22:26:05.055Z,20.96
2019-06-08T22:28:37.809Z,20.99
2019-06-08T22:31:13.800Z,20.96
2019-06-08T22:33:48.426Z,21.02
2019-06-08T22:36:20.770Z,21.09
2019-06-08T22:38:54.444Z,21.04
2019-06-08T22:41:28.055Z,21.12
2019-06-08T22:44:01.057Z,21.27
2019-06-08T22:46:33.433Z,20.38
2019-06-08T22:49:08.137Z,19.78
2019-06-08T22:51:41.699Z,19.48
2019-06-08T22:54:13.847Z,19.40
2019-06-08T22:56:47.814Z,19.22
2019-06-08T22:59:21.095Z,19.20
2019-06-08T23:01:54.616Z,19.05
2019-06-08T23:04:29.016Z,18.97
2019-06-08T23:07:04.531Z,19.13
2019-06-08T23:09:37.514Z,19.21
2019-06-08T23:12:09.946Z,19.19
2019-06-08T23:14:42.246Z,19.16
2019-06-08T23:17:14.394Z,19.37
2019-06-08T23:19:49.745Z,19.53
2019-06-08T23:22:27.419Z,19.70
2019-06-08T23:25:01.579Z,19.79
2019-06-08T23:27:38.404Z,19.79
2019-06-08T23:30:11.681Z,19.85
2019-06-08T23:32:44.017Z,20.00
2019-06-08T23:35:18.219Z,20.24
2019-06-08T23:37:51.961Z,20.17
2019-06-08T23:40:28.068Z,20.21
2019-06-08T23:43:01.589Z,20.09
2019-06-08T23:45:34.190Z,20.09
2019-06-08T23:48:08.722Z,20.07
2019-06-08T23:50:41.625Z,19.95
2019-06-08T23:53:13.816Z,19.77
2019-06-08T23:55:47.903Z,19.95
2019-06-08T23:58:22.460Z,19.86
